Time;durP1;ratioP1;P1;durP2;ratioP2;P2;SDS_P1;SDS_P2;PMS_P1;PMS_P2;Temp;Humidity;BMP_temperature;BMP_pressure;BME280_temperature;BME280_humidity;BME280_pressure;Samples;Min_cycle;Max_cycle;Signal;HPM_P1;HPM_P2
2022/03/25 00:01:22;;;;;;;11.90;7.17;;;9.00;99.90;;;;;;5086626;28;20207;-75
2022/03/25 00:03:48;;;;;;;6.47;5.70;;;9.00;99.90;;;;;;5094348;28;20225;-74
2022/03/25 00:06:13;;;;;;;11.20;6.67;;;9.00;99.90;;;;;;5081587;28;20176;-75
2022/03/25 00:08:39;;;;;;;9.10;6.17;;;9.00;99.90;;;;;;5093749;28;20229;-75
2022/03/25 00:11:05;;;;;;;8.23;7.47;;;9.00;99.90;;;;;;5093499;28;20198;-75
2022/03/25 00:13:30;;;;;;;9.03;6.40;;;9.00;99.90;;;;;;5087488;28;20232;-75
2022/03/25 00:15:56;;;;;;;13.27;8.97;;;9.00;99.90;;;;;;5073855;28;20169;-75
2022/03/25 00:18:22;;;;;;;10.33;7.30;;;8.90;99.90;;;;;;5087242;28;20780;-75
2022/03/25 00:20:49;;;;;;;12.93;7.40;;;8.80;99.90;;;;;;5072766;28;20200;-75
2022/03/25 00:23:15;;;;;;;8.93;6.57;;;8.80;99.90;;;;;;5072664;28;20177;-75
2022/03/25 00:25:40;;;;;;;4.67;3.97;;;8.90;99.90;;;;;;5074082;28;20172;-75
2022/03/25 00:28:06;;;;;;;7.33;6.47;;;8.80;99.90;;;;;;5079799;28;20187;-75
2022/03/25 00:30:32;;;;;;;10.10;7.60;;;8.70;99.90;;;;;;5094033;28;20631;-74
2022/03/25 00:32:58;;;;;;;13.83;8.40;;;8.70;99.90;;;;;;5080234;28;20261;-75
2022/03/25 00:35:23;;;;;;;7.90;5.60;;;8.60;99.90;;;;;;5081456;28;20214;-75
2022/03/25 00:37:49;;;;;;;10.47;7.57;;;8.60;99.90;;;;;;5072835;28;20183;-75
2022/03/25 00:40:15;;;;;;;8.50;6.53;;;8.50;99.90;;;;;;5073965;28;20169;-74
2022/03/25 00:42:41;;;;;;;7.60;6.83;;;8.50;99.90;;;;;;5077990;28;20714;-74
2022/03/25 00:45:08;;;;;;;9.80;6.73;;;8.50;99.90;;;;;;5085892;28;20179;-75
2022/03/25 00:47:36;;;;;;;6.30;5.67;;;8.50;99.90;;;;;;5093909;28;20529;-75
2022/03/25 00:50:02;;;;;;;8.20;6.13;;;8.40;99.90;;;;;;5080136;28;20189;-75
2022/03/25 00:52:28;;;;;;;4.87;4.57;;;8.30;99.90;;;;;;5082091;28;20681;-75
2022/03/25 00:54:53;;;;;;;16.37;7.80;;;8.20;99.90;;;;;;5084861;28;20179;-75
2022/03/25 00:57:19;;;;;;;9.87;5.10;;;8.10;99.90;;;;;;5093551;28;20176;-75
2022/03/25 00:59:45;;;;;;;8.13;4.23;;;8.10;99.90;;;;;;5092692;28;20791;-75
2022/03/25 01:02:11;;;;;;;5.57;4.30;;;8.00;99.90;;;;;;5078178;28;20211;-75
2022/03/25 01:04:37;;;;;;;4.77;4.37;;;8.00;99.90;;;;;;5079835;28;20271;-74
2022/03/25 01:07:03;;;;;;;8.70;6.83;;;7.90;99.90;;;;;;5078421;28;20233;-74
2022/03/25 01:09:28;;;;;;;6.73;4.60;;;7.80;99.90;;;;;;5092506;28;20179;-75
2022/03/25 01:11:54;;;;;;;21.73;9.37;;;7.70;99.90;;;;;;5088653;28;20211;-74
2022/03/25 01:14:20;;;;;;;9.70;5.93;;;7.60;99.90;;;;;;5092357;28;20779;-75
2022/03/25 01:16:46;;;;;;;20.33;5.43;;;7.40;99.90;;;;;;5090868;28;20535;-76
2022/03/25 01:19:12;;;;;;;9.30;5.87;;;7.20;99.90;;;;;;5100572;28;20210;-75
2022/03/25 01:21:37;;;;;;;13.70;7.80;;;6.90;99.90;;;;;;5095247;28;20666;-75
2022/03/25 01:24:04;;;;;;;7.83;6.57;;;6.60;99.90;;;;;;5079602;28;20183;-74
2022/03/25 01:26:30;;;;;;;10.20;6.83;;;6.60;99.90;;;;;;5092190;28;20179;-73
2022/03/25 01:28:56;;;;;;;3.47;3.07;;;6.70;99.90;;;;;;5092332;28;20183;-74
2022/03/25 01:31:22;;;;;;;6.40;5.77;;;6.80;99.90;;;;;;5090293;28;20207;-74
2022/03/25 01:33:47;;;;;;;5.43;3.67;;;6.80;99.90;;;;;;5092312;28;20186;-74
2022/03/25 01:36:13;;;;;;;3.80;3.17;;;6.80;99.90;;;;;;5092844;28;20203;-75
2022/03/25 01:38:39;;;;;;;4.67;4.27;;;6.80;99.90;;;;;;5092255;28;20253;-75
2022/03/25 01:41:06;;;;;;;4.63;4.20;;;6.80;99.90;;;;;;5090836;28;20245;-75
2022/03/25 01:43:31;;;;;;;4.03;3.73;;;6.70;99.90;;;;;;5072365;28;20168;-74
2022/03/25 01:45:57;;;;;;;12.60;6.97;;;6.80;99.90;;;;;;5091626;28;20170;-74
2022/03/25 01:48:23;;;;;;;15.50;7.77;;;6.70;99.90;;;;;;5091840;28;20217;-75
2022/03/25 01:50:48;;;;;;;6.00;5.17;;;6.70;99.90;;;;;;5090174;28;20196;-74
2022/03/25 01:53:17;;;;;;;16.43;7.33;;;6.60;99.90;;;;;;5072200;28;20200;-74
2022/03/25 01:55:52;;;;;;;4.53;4.23;;;6.40;99.90;;;;;;5089917;28;20660;-74
2022/03/25 01:58:18;;;;;;;5.93;3.53;;;6.10;99.90;;;;;;5089835;28;20171;-74
2022/03/25 02:00:44;;;;;;;16.07;6.70;;;5.80;99.90;;;;;;5091663;28;20184;-74
2022/03/25 02:03:10;;;;;;;8.97;7.40;;;5.60;99.90;;;;;;5091148;28;20642;-74
2022/03/25 02:05:36;;;;;;;12.87;8.00;;;5.60;99.90;;;;;;5075151;28;20222;-74
2022/03/25 02:08:02;;;;;;;9.33;6.77;;;5.60;99.90;;;;;;5080006;28;20661;-74
2022/03/25 02:10:28;;;;;;;8.03;5.07;;;5.80;99.90;;;;;;5091488;28;20186;-74
2022/03/25 02:12:53;;;;;;;4.03;3.70;;;5.90;99.90;;;;;;5088481;28;20199;-74
2022/03/25 02:15:30;;;;;;;15.53;6.93;;;6.00;99.90;;;;;;5091496;28;20647;-74
2022/03/25 02:17:56;;;;;;;27.43;8.90;;;5.90;99.90;;;;;;5088357;28;20190;-74
2022/03/25 02:20:22;;;;;;;7.43;5.30;;;5.80;99.90;;;;;;5080032;28;20168;-74
2022/03/25 02:22:48;;;;;;;7.40;6.80;;;5.80;99.90;;;;;;5076035;28;20686;-74
2022/03/25 02:25:20;;;;;;;11.40;4.60;;;5.70;99.90;;;;;;5080202;28;20179;-74
2022/03/25 02:27:47;;;;;;;10.90;8.57;;;5.80;99.90;;;;;;5088747;28;20258;-75
2022/03/25 02:30:13;;;;;;;6.60;5.43;;;5.90;99.90;;;;;;5071384;28;20176;-74
2022/03/25 02:32:39;;;;;;;3.93;3.70;;;5.90;99.90;;;;;;5087698;28;20206;-74
2022/03/25 02:35:06;;;;;;;14.87;6.80;;;6.00;99.90;;;;;;5091585;28;20210;-74
2022/03/25 02:37:32;;;;;;;12.07;4.63;;;6.00;99.90;;;;;;5087919;28;20183;-74
2022/03/25 02:39:58;;;;;;;12.90;6.50;;;6.00;99.90;;;;;;5081209;28;20176;-74
2022/03/25 02:42:24;;;;;;;10.23;6.17;;;5.90;99.90;;;;;;5079898;28;20236;-75
2022/03/25 02:44:49;;;;;;;13.20;5.37;;;5.90;99.90;;;;;;5081005;28;20178;-74
2022/03/25 02:47:16;;;;;;;42.37;5.57;;;6.00;99.90;;;;;;5091243;28;20179;-73
2022/03/25 02:49:42;;;;;;;15.53;8.03;;;6.00;99.90;;;;;;5091234;28;20444;-73
2022/03/25 02:52:07;;;;;;;7.57;6.57;;;5.90;99.90;;;;;;5078705;28;20620;-75
2022/03/25 02:54:33;;;;;;;13.43;8.30;;;5.90;99.90;;;;;;5081405;28;20176;-75
2022/03/25 02:56:59;;;;;;;3.70;2.97;;;6.00;99.90;;;;;;5078621;28;20183;-75
2022/03/25 02:59:25;;;;;;;15.83;7.00;;;5.90;99.90;;;;;;5089980;28;20198;-75
2022/03/25 03:01:51;;;;;;;4.13;2.93;;;5.90;99.90;;;;;;5090717;28;20568;-74
2022/03/25 03:04:17;;;;;;;6.97;5.03;;;5.90;99.90;;;;;;5090967;28;20224;-74
2022/03/25 03:06:43;;;;;;;7.17;6.37;;;5.90;99.90;;;;;;5076112;28;20176;-75
2022/03/25 03:09:09;;;;;;;5.30;3.83;;;5.80;99.90;;;;;;5079805;28;20473;-73
2022/03/25 03:11:35;;;;;;;6.47;5.43;;;5.80;99.90;;;;;;5085117;28;20889;-73
2022/03/25 03:14:01;;;;;;;14.33;8.87;;;5.80;99.90;;;;;;5090976;28;20183;-73
2022/03/25 03:16:27;;;;;;;10.33;9.27;;;5.80;99.90;;;;;;5090758;28;20180;-73
2022/03/25 03:18:52;;;;;;;5.00;4.20;;;5.80;99.90;;;;;;5090957;28;20179;-72
2022/03/25 03:21:20;;;;;;;4.53;3.60;;;5.70;99.90;;;;;;5090584;28;20634;-72
2022/03/25 03:23:46;;;;;;;7.70;6.97;;;5.70;99.90;;;;;;5089849;28;20271;-73
2022/03/25 03:26:12;;;;;;;6.17;3.80;;;5.60;99.90;;;;;;5093194;28;20325;-72
2022/03/25 03:28:37;;;;;;;6.80;5.70;;;5.60;99.90;;;;;;5094630;28;20178;-73
2022/03/25 03:31:03;;;;;;;6.83;6.13;;;5.60;99.90;;;;;;5080626;28;20195;-73
2022/03/25 03:33:28;;;;;;;7.23;6.53;;;5.50;99.90;;;;;;5093973;28;20231;-73
2022/03/25 03:35:54;;;;;;;7.43;6.77;;;5.60;99.90;;;;;;5094265;28;20184;-73
2022/03/25 03:38:19;;;;;;;6.83;5.93;;;5.50;99.90;;;;;;5094181;28;20179;-73
2022/03/25 03:40:45;;;;;;;6.33;5.83;;;5.30;99.90;;;;;;5092599;28;20734;-73
2022/03/25 03:43:11;;;;;;;3.97;3.63;;;5.10;99.90;;;;;;5083303;28;20198;-73
2022/03/25 03:45:36;;;;;;;6.23;4.80;;;5.00;99.90;;;;;;5090377;28;20183;-73
2022/03/25 03:48:02;;;;;;;9.97;4.33;;;4.90;99.90;;;;;;5092839;28;20218;-73
2022/03/25 03:50:28;;;;;;;4.47;4.00;;;4.80;99.90;;;;;;5092654;28;20190;-73
2022/03/25 03:52:53;;;;;;;6.43;5.50;;;4.80;99.90;;;;;;5074917;28;20196;-73
2022/03/25 03:55:19;;;;;;;6.23;5.10;;;4.80;99.90;;;;;;5089858;28;20187;-73
2022/03/25 03:57:44;;;;;;;1.37;1.37;;;4.80;99.90;;;;;;5093842;28;20212;-73
2022/03/25 04:00:12;;;;;;;11.43;4.00;;;4.70;99.90;;;;;;5090795;28;20546;-73
2022/03/25 04:02:39;;;;;;;4.43;4.13;;;4.60;99.90;;;;;;5093418;28;20195;-73
2022/03/25 04:05:05;;;;;;;4.87;4.47;;;4.50;99.90;;;;;;5087832;28;20172;-73
2022/03/25 04:07:31;;;;;;;8.70;3.47;;;4.40;99.90;;;;;;5082136;28;20180;-73
2022/03/25 04:09:57;;;;;;;10.27;5.97;;;4.30;99.90;;;;;;5093647;28;20202;-73
2022/03/25 04:12:22;;;;;;;4.40;4.10;;;4.30;99.90;;;;;;5090927;28;20211;-73
2022/03/25 04:14:48;;;;;;;11.90;8.57;;;4.30;99.90;;;;;;5092122;28;20737;-73
2022/03/25 04:17:14;;;;;;;5.63;3.67;;;4.30;99.90;;;;;;5093515;28;20202;-73
2022/03/25 04:19:39;;;;;;;5.43;4.60;;;4.40;99.90;;;;;;5093430;28;20172;-72
2022/03/25 04:22:06;;;;;;;6.37;2.83;;;4.40;99.90;;;;;;5092778;28;20285;-72
2022/03/25 04:24:32;;;;;;;6.37;5.33;;;4.40;99.90;;;;;;5093277;28;20179;-72
2022/03/25 04:26:57;;;;;;;9.23;6.57;;;4.40;99.90;;;;;;5093335;28;20179;-72
2022/03/25 04:29:23;;;;;;;4.03;2.87;;;4.50;99.90;;;;;;5093092;28;20176;-72
2022/03/25 04:31:48;;;;;;;4.33;4.13;;;4.50;99.90;;;;;;5091532;28;20211;-73
2022/03/25 04:34:14;;;;;;;5.90;4.77;;;4.50;99.90;;;;;;5093123;28;20176;-72
2022/03/25 04:36:40;;;;;;;4.40;3.87;;;4.50;99.90;;;;;;5092864;28;20172;-72
2022/03/25 04:39:05;;;;;;;17.87;7.70;;;4.50;99.90;;;;;;5093037;28;20263;-72
2022/03/25 04:41:31;;;;;;;4.13;3.90;;;4.60;99.90;;;;;;5087654;28;20291;-72
2022/03/25 04:43:56;;;;;;;5.30;4.90;;;4.60;99.90;;;;;;5081586;28;20188;-72
2022/03/25 04:46:22;;;;;;;7.00;6.50;;;4.50;99.90;;;;;;5092750;28;20233;-73
2022/03/25 04:48:47;;;;;;;3.97;3.60;;;4.40;99.90;;;;;;5079147;28;20176;-73
2022/03/25 04:51:13;;;;;;;9.10;6.53;;;4.30;99.90;;;;;;5081589;28;20197;-73
2022/03/25 04:53:39;;;;;;;4.83;4.27;;;4.20;99.90;;;;;;5074148;28;20199;-73
2022/03/25 04:56:04;;;;;;;5.90;4.60;;;4.10;99.90;;;;;;5093095;28;20180;-74
2022/03/25 04:58:30;;;;;;;4.20;3.83;;;4.10;99.90;;;;;;5088143;28;20168;-72
2022/03/25 05:00:56;;;;;;;14.20;4.80;;;4.00;99.90;;;;;;5092638;28;20290;-73
2022/03/25 05:03:22;;;;;;;12.73;8.73;;;4.00;99.90;;;;;;5090844;28;20240;-73
2022/03/25 05:05:48;;;;;;;2.67;2.47;;;4.00;99.90;;;;;;5082320;28;20181;-72
2022/03/25 05:08:15;;;;;;;4.30;3.90;;;3.90;99.90;;;;;;5088415;28;20186;-73
2022/03/25 05:10:41;;;;;;;9.93;7.00;;;3.80;99.90;;;;;;5092889;28;20195;-73
2022/03/25 05:13:08;;;;;;;3.53;3.33;;;3.70;99.90;;;;;;5090040;28;20203;-73
2022/03/25 05:15:34;;;;;;;7.13;5.83;;;3.60;99.90;;;;;;5092256;28;20192;-73
2022/03/25 05:18:00;;;;;;;9.97;6.03;;;3.50;99.90;;;;;;5092213;28;20246;-73
2022/03/25 05:20:25;;;;;;;4.27;4.03;;;3.60;99.90;;;;;;5092213;28;20184;-73
2022/03/25 05:22:51;;;;;;;8.20;3.73;;;3.60;99.90;;;;;;5091689;28;20192;-72
2022/03/25 05:25:18;;;;;;;11.43;3.63;;;3.50;99.90;;;;;;5093499;28;20180;-72
2022/03/25 05:27:51;;;;;;;9.33;8.43;;;3.50;99.90;;;;;;5092706;28;20234;-73
2022/03/25 05:30:20;;;;;;;10.37;2.97;;;3.50;99.90;;;;;;5093051;28;20199;-72
2022/03/25 05:32:46;;;;;;;4.00;3.17;;;3.40;99.90;;;;;;5091565;28;20208;-73
2022/03/25 05:35:11;;;;;;;7.43;6.93;;;3.40;99.90;;;;;;5091912;28;20183;-71
2022/03/25 05:37:38;;;;;;;8.37;6.70;;;3.30;99.90;;;;;;5094429;28;20646;-73
2022/03/25 05:40:05;;;;;;;5.57;5.10;;;3.20;99.90;;;;;;5091493;28;20176;-73
2022/03/25 05:42:32;;;;;;;16.67;6.73;;;3.30;99.90;;;;;;5078218;28;20265;-73
2022/03/25 05:44:58;;;;;;;7.57;3.40;;;3.30;99.90;;;;;;5083857;28;20175;-73
2022/03/25 05:47:24;;;;;;;5.50;5.03;;;3.20;99.90;;;;;;5090065;28;20202;-73
2022/03/25 05:49:49;;;;;;;6.90;6.00;;;3.20;99.90;;;;;;5092046;28;20199;-73
2022/03/25 05:52:15;;;;;;;8.23;7.47;;;3.00;99.90;;;;;;5072408;28;20685;-73
2022/03/25 05:54:40;;;;;;;4.00;3.80;;;2.90;99.90;;;;;;5080848;28;20645;-73
2022/03/25 05:57:06;;;;;;;4.93;4.60;;;2.90;99.90;;;;;;5065469;28;20191;-71
2022/03/25 05:59:32;;;;;;;1.07;1.07;;;2.80;99.90;;;;;;5058186;28;20214;-72
2022/03/25 06:01:57;;;;;;;4.43;4.13;;;2.70;99.90;;;;;;5061345;28;20197;-72
2022/03/25 06:04:23;;;;;;;5.90;4.50;;;2.70;99.90;;;;;;5071567;28;20187;-73
2022/03/25 06:06:49;;;;;;;4.60;3.53;;;2.80;99.90;;;;;;5073500;28;20175;-72
2022/03/25 06:09:15;;;;;;;6.27;5.57;;;2.80;99.90;;;;;;5076231;28;20285;-73
2022/03/25 06:11:41;;;;;;;4.83;4.03;;;2.80;99.90;;;;;;5075269;28;20277;-73
2022/03/25 06:14:07;;;;;;;6.47;3.10;;;2.90;99.90;;;;;;5079720;28;20195;-73
2022/03/25 06:16:32;;;;;;;5.20;4.77;;;2.90;99.90;;;;;;5088326;28;20254;-74
2022/03/25 06:18:58;;;;;;;7.10;4.70;;;2.90;99.90;;;;;;5083069;28;20187;-73
2022/03/25 06:21:23;;;;;;;6.90;4.47;;;3.00;99.90;;;;;;5077370;28;20204;-75
2022/03/25 06:23:50;;;;;;;2.77;2.57;;;3.20;99.90;;;;;;5079667;28;20180;-73
2022/03/25 06:26:16;;;;;;;5.80;5.47;;;3.30;99.90;;;;;;5070858;28;20208;-72
2022/03/25 06:28:42;;;;;;;7.20;6.50;;;3.50;99.90;;;;;;5069303;28;20230;-72
2022/03/25 06:31:08;;;;;;;9.03;6.30;;;3.50;99.90;;;;;;5087060;28;20208;-74
2022/03/25 06:33:34;;;;;;;12.23;6.30;;;3.60;99.90;;;;;;5077986;28;20208;-73
2022/03/25 06:36:00;;;;;;;7.10;6.57;;;3.70;99.90;;;;;;5080682;28;20175;-72
2022/03/25 06:38:26;;;;;;;8.40;3.80;;;3.80;99.90;;;;;;5086550;28;20217;-73
2022/03/25 06:40:51;;;;;;;4.80;4.40;;;4.00;99.90;;;;;;5070282;28;20192;-74
2022/03/25 06:43:17;;;;;;;11.27;7.10;;;4.10;99.90;;;;;;5068656;28;20663;-74
2022/03/25 06:45:42;;;;;;;9.13;4.83;;;4.30;99.90;;;;;;5074470;28;20724;-73
2022/03/25 06:48:08;;;;;;;17.53;7.83;;;4.60;99.90;;;;;;5081553;28;20181;-72
2022/03/25 06:50:34;;;;;;;7.27;6.57;;;4.80;99.90;;;;;;5081669;28;20565;-73
2022/03/25 06:53:01;;;;;;;10.30;7.77;;;4.90;99.90;;;;;;5072393;28;20212;-75
2022/03/25 06:55:28;;;;;;;8.53;7.23;;;5.00;99.90;;;;;;5075406;28;20258;-73
2022/03/25 06:57:54;;;;;;;9.53;7.13;;;5.10;99.90;;;;;;5071045;28;20779;-73
2022/03/25 07:00:21;;;;;;;9.00;7.20;;;5.10;99.90;;;;;;5088431;28;20208;-73
2022/03/25 07:02:47;;;;;;;11.33;7.27;;;5.20;99.90;;;;;;5084662;28;20590;-73
2022/03/25 07:05:15;;;;;;;6.47;5.93;;;5.30;99.90;;;;;;5080754;28;20255;-74
2022/03/25 07:07:42;;;;;;;12.63;8.73;;;5.50;99.90;;;;;;5084687;28;20175;-74
2022/03/25 07:10:09;;;;;;;8.37;6.43;;;5.70;99.90;;;;;;5082608;28;20181;-74
2022/03/25 07:12:39;;;;;;;13.00;6.07;;;5.80;99.90;;;;;;5077315;28;20204;-74
2022/03/25 07:15:05;;;;;;;13.90;5.47;;;6.10;99.90;;;;;;5088313;28;20223;-74
2022/03/25 07:17:31;;;;;;;8.10;5.90;;;6.30;99.90;;;;;;5078792;28;20231;-72
2022/03/25 07:19:57;;;;;;;15.40;7.43;;;6.50;99.90;;;;;;5088038;28;20172;-73
2022/03/25 07:22:22;;;;;;;14.00;7.07;;;6.70;99.90;;;;;;5085583;28;20710;-73
2022/03/25 07:24:48;;;;;;;10.87;8.70;;;6.80;99.90;;;;;;5082473;28;20175;-74
2022/03/25 07:27:13;;;;;;;26.23;10.57;;;7.00;99.90;;;;;;5082652;28;20183;-73
2022/03/25 07:29:39;;;;;;;28.10;5.33;;;7.20;99.90;;;;;;5089079;28;20175;-73
2022/03/25 07:32:05;;;;;;;8.03;7.30;;;7.40;99.90;;;;;;5078574;28;20216;-72
2022/03/25 07:34:36;;;;;;;8.20;6.37;;;7.50;99.90;;;;;;5089991;28;20203;-73
2022/03/25 07:37:03;;;;;;;8.70;6.27;;;7.70;99.90;;;;;;5080602;28;20230;-73
2022/03/25 07:39:29;;;;;;;13.87;10.73;;;7.80;99.90;;;;;;5083774;28;20211;-76
2022/03/25 07:41:55;;;;;;;10.33;9.07;;;8.00;99.90;;;;;;5073866;28;20216;-76
2022/03/25 07:44:20;;;;;;;17.47;7.43;;;8.20;99.90;;;;;;5077760;28;20591;-76
2022/03/25 07:46:46;;;;;;;6.97;6.37;;;8.50;99.90;;;;;;5081486;28;20711;-75
2022/03/25 07:49:11;;;;;;;11.40;9.27;;;8.80;99.90;;;;;;5082767;28;20662;-75
2022/03/25 07:51:37;;;;;;;11.63;9.03;;;9.00;99.90;;;;;;5083693;28;20663;-75
2022/03/25 07:54:02;;;;;;;11.80;10.27;;;9.10;99.90;;;;;;5078833;28;20187;-76
2022/03/25 07:56:28;;;;;;;12.63;9.17;;;9.20;99.90;;;;;;5077044;28;20640;-76
2022/03/25 07:58:54;;;;;;;8.47;7.67;;;9.30;99.90;;;;;;5077548;28;20240;-76
2022/03/25 08:01:19;;;;;;;11.13;7.17;;;9.40;99.90;;;;;;5073217;28;20541;-74
2022/03/25 08:03:45;;;;;;;7.50;5.03;;;9.50;99.90;;;;;;5074251;28;20536;-76
2022/03/25 08:06:14;;;;;;;8.67;7.60;;;9.70;99.90;;;;;;5072884;28;20637;-76
2022/03/25 08:08:40;;;;;;;9.33;7.37;;;9.80;99.90;;;;;;5079243;28;20228;-76
2022/03/25 08:11:06;;;;;;;10.67;8.37;;;10.00;99.90;;;;;;5088111;28;20203;-76
2022/03/25 08:13:32;;;;;;;12.50;9.40;;;10.20;99.90;;;;;;5075818;28;20203;-76
2022/03/25 08:15:58;;;;;;;10.90;9.73;;;10.40;99.90;;;;;;5082226;28;20184;-76
2022/03/25 08:18:24;;;;;;;6.90;6.20;;;10.40;99.90;;;;;;5083646;28;20225;-76
2022/03/25 08:20:51;;;;;;;16.33;8.27;;;10.40;99.90;;;;;;5072681;28;20771;-75
2022/03/25 08:29:00;;;;;;;16.47;9.50;;;10.80;99.90;;;;;;5078443;28;20192;-74
2022/03/25 08:31:25;;;;;;;20.97;8.30;;;11.00;99.90;;;;;;5087137;28;20682;-76
2022/03/25 08:33:51;;;;;;;9.47;5.80;;;11.20;99.90;;;;;;5075502;28;20187;-75
2022/03/25 08:36:18;;;;;;;11.20;9.97;;;11.40;99.90;;;;;;5083033;28;20195;-74
2022/03/25 08:38:44;;;;;;;11.13;6.93;;;11.30;99.90;;;;;;5083380;28;20190;-74
2022/03/25 08:41:09;;;;;;;12.70;9.37;;;11.40;99.90;;;;;;5086856;28;20208;-74
2022/03/25 08:43:35;;;;;;;20.43;11.67;;;11.50;99.90;;;;;;5072329;28;20184;-74
2022/03/25 08:46:01;;;;;;;10.20;6.60;;;11.60;99.90;;;;;;5088776;28;20262;-73
2022/03/25 08:48:27;;;;;;;19.33;10.13;;;11.70;99.90;;;;;;5077818;28;20183;-73
2022/03/25 08:50:53;;;;;;;17.73;10.27;;;11.70;99.90;;;;;;5079694;28;20705;-74
2022/03/25 08:53:19;;;;;;;16.00;8.80;;;11.80;99.90;;;;;;5072514;28;20262;-74
2022/03/25 08:55:45;;;;;;;16.73;8.67;;;12.10;99.90;;;;;;5078862;28;20636;-73
2022/03/25 08:58:11;;;;;;;12.13;10.77;;;12.10;99.90;;;;;;5072323;28;20187;-72
2022/03/25 09:00:37;;;;;;;13.70;11.10;;;12.10;99.90;;;;;;5088674;28;20210;-74
2022/03/25 09:03:03;;;;;;;22.27;10.07;;;12.00;99.90;;;;;;5078869;28;20644;-73
2022/03/25 09:05:29;;;;;;;10.60;7.57;;;12.10;99.90;;;;;;5073956;28;20195;-73
2022/03/25 09:07:54;;;;;;;30.00;11.03;;;12.20;99.90;;;;;;5073973;28;20636;-74
2022/03/25 09:10:20;;;;;;;46.80;14.07;;;12.40;99.90;;;;;;5085630;28;20408;-72
2022/03/25 09:12:46;;;;;;;11.80;8.67;;;12.40;99.90;;;;;;5075024;28;20204;-74
2022/03/25 09:15:13;;;;;;;24.47;10.17;;;12.50;99.90;;;;;;5077926;28;20185;-72
2022/03/25 09:17:40;;;;;;;15.00;10.20;;;12.60;99.90;;;;;;5078153;28;20172;-74
2022/03/25 09:20:06;;;;;;;14.37;6.93;;;12.60;99.90;;;;;;5075845;28;20195;-74
2022/03/25 09:22:34;;;;;;;8.97;8.20;;;12.60;99.90;;;;;;5074647;28;20208;-73
2022/03/25 09:25:01;;;;;;;14.23;6.60;;;12.80;99.90;;;;;;5087147;28;20204;-73
2022/03/25 09:27:27;;;;;;;18.67;6.17;;;13.20;99.90;;;;;;5078330;28;20188;-74
2022/03/25 09:29:53;;;;;;;6.93;6.27;;;13.20;99.90;;;;;;5088603;28;20188;-74
2022/03/25 09:32:18;;;;;;;7.60;6.63;;;13.10;99.90;;;;;;5078056;28;20219;-74
2022/03/25 09:37:28;;;;;;;16.80;10.83;;;13.40;99.90;;;;;;5079452;28;20271;-74
2022/03/25 09:39:53;;;;;;;31.50;10.00;;;13.40;99.90;;;;;;5084413;28;20204;-74
2022/03/25 09:42:20;;;;;;;9.80;6.83;;;13.50;99.90;;;;;;5076675;28;20266;-74
2022/03/25 09:44:46;;;;;;;15.97;8.03;;;13.60;99.90;;;;;;5072804;28;20181;-74
2022/03/25 09:47:14;;;;;;;9.70;7.20;;;13.80;99.90;;;;;;5074586;28;20631;-74
2022/03/25 09:49:40;;;;;;;9.33;8.40;;;13.90;99.90;;;;;;5080380;28;20176;-73
2022/03/25 09:52:07;;;;;;;4.43;4.10;;;14.00;99.90;;;;;;5074019;28;20330;-73
2022/03/25 09:54:34;;;;;;;10.47;8.70;;;14.10;99.90;;;;;;5072238;28;20265;-74
2022/03/25 09:57:00;;;;;;;11.30;4.83;;;14.30;99.90;;;;;;5079966;28;20184;-74
2022/03/25 09:59:26;;;;;;;14.30;8.10;;;14.60;99.90;;;;;;5087340;28;20262;-74
2022/03/25 10:01:52;;;;;;;10.07;8.80;;;14.90;99.90;;;;;;5079064;28;20197;-74
2022/03/25 10:04:43;;;;;;;12.63;6.67;;;15.00;99.90;;;;;;5083041;28;20177;-74
2022/03/25 10:07:27;;;;;;;8.83;7.50;;;14.90;99.90;;;;;;5058164;28;20179;-73
2022/03/25 10:10:10;;;;;;;12.47;8.53;;;15.00;99.90;;;;;;5078285;28;20231;-73
2022/03/25 10:12:37;;;;;;;11.40;7.53;;;15.20;99.90;;;;;;5085442;28;20237;-74
2022/03/25 10:15:26;;;;;;;14.53;8.40;;;15.60;99.90;;;;;;5072456;28;20206;-75
2022/03/25 10:17:52;;;;;;;18.77;8.70;;;15.70;99.90;;;;;;5078851;28;20175;-73
2022/03/25 10:20:20;;;;;;;17.13;8.20;;;15.70;99.90;;;;;;5079569;28;20185;-74
2022/03/25 10:23:08;;;;;;;17.63;11.03;;;16.00;99.90;;;;;;5075313;28;20203;-73
2022/03/25 10:25:51;;;;;;;18.27;9.37;;;16.00;99.90;;;;;;5071559;28;20194;-74
2022/03/25 10:28:40;;;;;;;9.07;6.40;;;16.00;99.90;;;;;;5064557;28;20194;-74
2022/03/25 10:31:11;;;;;;;20.33;9.90;;;16.40;99.90;;;;;;5077971;28;20199;-73
2022/03/25 10:33:50;;;;;;;13.67;9.17;;;16.80;99.90;;;;;;5087391;28;20698;-74
2022/03/25 10:36:19;;;;;;;12.90;7.63;;;17.00;99.90;;;;;;5062734;28;20188;-73
2022/03/25 10:38:57;;;;;;;10.30;6.63;;;17.30;99.90;;;;;;5076380;28;20275;-72
2022/03/25 10:41:24;;;;;;;5.60;4.43;;;17.40;99.90;;;;;;5091227;28;20242;-74
2022/03/25 10:43:59;;;;;;;9.63;6.20;;;17.60;99.90;;;;;;5073148;28;20263;-72
2022/03/25 10:46:40;;;;;;;12.33;6.50;;;17.90;99.90;;;;;;5082649;28;20659;-74
2022/03/25 10:49:09;;;;;;;18.57;6.77;;;18.00;99.90;;;;;;5083553;28;20191;-72
2022/03/25 10:51:37;;;;;;;11.70;6.47;;;18.40;99.90;;;;;;5065756;28;20905;-73
2022/03/25 10:54:07;;;;;;;22.37;5.27;;;18.90;99.90;;;;;;5097536;28;20188;-75
2022/03/25 10:56:46;;;;;;;11.00;6.73;;;19.70;99.90;;;;;;5089013;28;20168;-75
2022/03/25 10:59:31;;;;;;;14.67;9.17;;;20.50;99.10;;;;;;5070250;28;20173;-73
2022/03/25 11:01:59;;;;;;;7.93;5.50;;;19.30;97.80;;;;;;5081507;28;20297;-73
2022/03/25 11:04:26;;;;;;;8.83;4.17;;;19.90;94.70;;;;;;5080485;28;20209;-74
2022/03/25 11:06:53;;;;;;;7.00;2.90;;;19.20;93.70;;;;;;5079403;28;20669;-74
2022/03/25 11:09:19;;;;;;;3.27;3.07;;;20.40;85.40;;;;;;5076935;28;20539;-75
2022/03/25 11:11:48;;;;;;;0.80;0.80;;;20.80;79.10;;;;;;5086255;28;20211;-73
2022/03/25 11:14:14;;;;;;;4.07;2.70;;;21.60;71.10;;;;;;5078940;28;20180;-74
2022/03/25 11:16:44;;;;;;;1.67;1.63;;;21.60;67.30;;;;;;5087832;28;20182;-73
2022/03/25 11:19:10;;;;;;;3.87;3.23;;;20.00;69.60;;;;;;5067147;28;20180;-74
2022/03/25 11:21:42;;;;;;;7.77;2.77;;;19.50;70.70;;;;;;5077279;28;20804;-74
2022/03/25 11:24:20;;;;;;;2.80;2.00;;;20.40;68.20;;;;;;5086081;28;20176;-74
2022/03/25 11:26:48;;;;;;;3.97;3.57;;;21.20;63.60;;;;;;5084420;28;20180;-74
2022/03/25 11:29:16;;;;;;;1.63;1.47;;;20.90;62.40;;;;;;5070758;28;20259;-74
2022/03/25 11:32:03;;;;;;;0.97;0.60;;;21.50;62.30;;;;;;5080007;28;20195;-73
2022/03/25 11:34:29;;;;;;;3.67;2.40;;;21.80;59.60;;;;;;5079352;28;20259;-74
2022/03/25 11:37:17;;;;;;;6.47;2.97;;;22.90;56.90;;;;;;5082208;28;20255;-73
2022/03/25 11:39:43;;;;;;;3.47;3.17;;;23.20;55.70;;;;;;5070936;28;20639;-73
2022/03/25 11:42:42;;;;;;;6.60;2.73;;;22.50;55.20;;;;;;5073334;28;20306;-74
2022/03/25 11:45:34;;;;;;;1.90;1.80;;;22.70;55.50;;;;;;5076084;28;20172;-74
2022/03/25 11:47:59;;;;;;;5.40;2.83;;;24.00;55.30;;;;;;5061024;28;20188;-74
2022/03/25 11:50:30;;;;;;;4.63;3.80;;;24.20;54.80;;;;;;5078457;28;20555;-74
2022/03/25 11:52:56;;;;;;;8.53;4.30;;;24.80;53.40;;;;;;5071993;28;20575;-73
2022/03/25 11:55:22;;;;;;;11.07;3.33;;;23.40;54.20;;;;;;5074756;28;20168;-73
2022/03/25 11:57:47;;;;;;;2.63;2.43;;;23.90;53.60;;;;;;5079228;28;20202;-74
2022/03/25 12:00:24;;;;;;;6.50;4.30;;;24.20;53.10;;;;;;5084760;28;20177;-74
2022/03/25 12:03:01;;;;;;;6.63;3.10;;;23.00;55.30;;;;;;5074705;28;20190;-74
2022/03/25 12:05:26;;;;;;;3.47;2.57;;;24.50;53.80;;;;;;5079706;28;20176;-74
2022/03/25 12:08:32;;;;;;;4.73;3.53;;;25.50;53.20;;;;;;5072181;28;20199;-76
2022/03/25 12:11:01;;;;;;;4.60;2.10;;;24.50;51.60;;;;;;5068738;28;20196;-75
2022/03/25 12:13:55;;;;;;;10.30;2.53;;;25.80;50.60;;;;;;5088771;28;20299;-73
2022/03/25 12:16:45;;;;;;;7.23;3.60;;;26.00;48.70;;;;;;5090690;28;20190;-75
2022/03/25 12:19:26;;;;;;;4.53;4.03;;;26.40;48.50;;;;;;5073582;28;20175;-74
2022/03/25 12:21:55;;;;;;;8.73;4.88;;;24.30;49.00;;;;;;5071186;28;20443;-75
2022/03/25 12:24:21;;;;;;;6.17;4.50;;;24.80;49.70;;;;;;5076104;28;20196;-74
2022/03/25 12:26:57;;;;;;;4.60;3.13;;;25.40;49.40;;;;;;5082027;28;20186;-75
2022/03/25 12:29:29;;;;;;;3.10;2.90;;;26.50;46.10;;;;;;5072169;28;20525;-75
2022/03/25 12:31:55;;;;;;;2.20;2.00;;;27.10;46.30;;;;;;5077037;28;20698;-75
2022/03/25 12:34:59;;;;;;;4.77;2.87;;;26.80;45.80;;;;;;5084976;28;20188;-75
2022/03/25 12:37:25;;;;;;;6.47;3.37;;;25.90;46.60;;;;;;5081779;28;20662;-74
2022/03/25 12:39:52;;;;;;;5.80;3.50;;;25.00;47.40;;;;;;5077743;28;20322;-73
2022/03/25 12:42:17;;;;;;;18.60;7.03;;;25.30;47.10;;;;;;5079571;28;20216;-75
2022/03/25 12:44:43;;;;;;;11.40;4.13;;;25.50;46.80;;;;;;5071890;28;20651;-75
2022/03/25 12:47:15;;;;;;;18.50;4.33;;;25.30;46.90;;;;;;5086472;28;20187;-74
2022/03/25 12:49:41;;;;;;;7.57;3.80;;;26.50;45.90;;;;;;5075896;28;20164;-75
2022/03/25 12:52:06;;;;;;;3.60;3.03;;;26.60;45.00;;;;;;5072201;28;20683;-75
2022/03/25 12:54:34;;;;;;;5.87;4.03;;;24.60;46.80;;;;;;5078695;28;20664;-75
2022/03/25 12:57:01;;;;;;;5.37;4.37;;;25.30;47.10;;;;;;5088509;28;20544;-75
2022/03/25 12:59:32;;;;;;;3.57;2.97;;;26.10;45.70;;;;;;5077942;28;20184;-75